Portada
METAR-TAF:

METAR-TAF

Aeroports :

Aeroport Internacional de Pequín

Pequín, Xina

latitud: 39-56N, longitud: 116-17E, altitud: 55 m

Observació

L'informe es va fer fa 31 minuts, a les 00:30 UTC
Vent 2 kt amb direcció variable
Temperatura 5°C
Humitat 70%
Pressió 1023 hPa
Visibilitat: 3500 m
boirina

METAR: ZBAA 220030Z VRB01MPS 3500 BR NSC 05/M00 Q1023 NOSIG

Hora: 09:01 (01:01 UTC)

Pronòstic

L'informe es va fer fa 3 hores i 41 minuts, a les 21:20 UTC
Pronòstic vàlid del 22 a les 00 UTC al 22 a les 24 UTC
Vent 8 kt del Sud
Visibilitat: 5000 m
boirina

TAF: ZBAA 212120Z 2200/2224 18004MPS 5000 BR NSC TX08/2207Z TNM01/21Z

Observacions i pronòstics meteorològics de més de 4000 aeroports (METAR i TAF).

Les estacions disponibles són els punts grocs i vermells al mapa.

Posi el ratolí al punt desitjat per veure el nom de l'estació.

Feu clic per veure les observacions i els pronòstics meteorològics.

Per canviar el mapa: feu clic els botons verds amb una creu de color negre per apropar; al botó verd amb un guió per allunyar la imatge; o en les fletxes verdes per a mapes adjacents.


METAR-TAF: